Time;durP1;ratioP1;P1;durP2;ratioP2;P2;SDS_P1;SDS_P2;PMS_P1;PMS_P2;Temp;Humidity;BMP_temperature;BMP_pressure;BME280_temperature;BME280_humidity;BME280_pressure;Samples;Min_cycle;Max_cycle;Signal;HPM_P1;HPM_P2
2021/07/03 00:00:22;;;;;;;10.63;9.40;;;18.70;99.90;;;;;;5072861;28;20277;-85
2021/07/03 00:02:48;;;;;;;12.20;10.68;;;18.70;99.90;;;;;;5074038;28;20190;-85
2021/07/03 00:05:13;;;;;;;10.65;9.52;;;18.60;99.90;;;;;;5079823;28;20173;-85
2021/07/03 00:07:39;;;;;;;11.20;9.80;;;18.50;99.90;;;;;;5076336;28;20256;-84
2021/07/03 00:10:06;;;;;;;14.73;10.88;;;18.50;99.90;;;;;;5096323;28;20166;-84
2021/07/03 00:12:31;;;;;;;10.70;9.65;;;18.60;99.90;;;;;;5093892;28;20170;-85
2021/07/03 00:14:57;;;;;;;11.02;9.95;;;18.60;99.90;;;;;;5076332;28;20170;-85
2021/07/03 00:17:23;;;;;;;12.32;10.13;;;18.60;99.90;;;;;;5094119;28;20220;-84
2021/07/03 00:19:48;;;;;;;11.02;9.82;;;18.60;99.90;;;;;;5072756;28;20190;-84
2021/07/03 00:22:14;;;;;;;10.50;9.52;;;18.50;99.90;;;;;;5075425;28;20173;-85
2021/07/03 00:24:40;;;;;;;10.95;9.60;;;18.50;99.90;;;;;;5076716;28;20181;-85
2021/07/03 00:27:05;;;;;;;10.77;9.70;;;18.50;99.90;;;;;;5093747;28;20649;-85
2021/07/03 00:29:31;;;;;;;12.45;9.45;;;18.50;99.90;;;;;;5093813;28;20177;-84
2021/07/03 00:31:57;;;;;;;11.02;9.77;;;18.60;99.90;;;;;;5093626;28;20571;-85
2021/07/03 00:34:22;;;;;;;10.20;9.02;;;18.60;99.90;;;;;;5075161;28;20178;-85
2021/07/03 00:36:48;;;;;;;9.70;8.80;;;18.60;99.90;;;;;;5091264;28;20166;-84
2021/07/03 00:39:14;;;;;;;11.00;8.63;;;18.50;99.90;;;;;;5091311;28;20375;-85
2021/07/03 00:41:39;;;;;;;10.07;8.50;;;18.50;99.90;;;;;;5083496;28;20177;-85
2021/07/03 00:44:05;;;;;;;12.13;9.45;;;18.60;99.90;;;;;;5116277;28;20165;-84
2021/07/03 00:46:30;;;;;;;8.65;7.90;;;18.60;99.90;;;;;;5117056;28;20174;-85
2021/07/03 00:48:56;;;;;;;11.30;9.55;;;18.70;99.90;;;;;;5097911;28;20564;-84
2021/07/03 00:51:22;;;;;;;12.25;9.98;;;18.70;99.90;;;;;;5091246;28;20224;-84
2021/07/03 00:53:48;;;;;;;10.52;9.45;;;18.80;99.90;;;;;;5092213;28;20162;-84
2021/07/03 00:56:14;;;;;;;9.88;9.00;;;18.80;99.90;;;;;;5091513;28;20170;-84
2021/07/03 00:58:40;;;;;;;10.75;9.70;;;18.80;99.90;;;;;;5087172;28;20182;-85
2021/07/03 01:01:05;;;;;;;10.50;9.13;;;18.90;99.90;;;;;;5117740;28;20201;-85
2021/07/03 01:03:31;;;;;;;14.13;9.20;;;18.90;99.90;;;;;;5116824;28;20178;-83
2021/07/03 01:05:57;;;;;;;9.82;8.82;;;19.00;99.90;;;;;;5095724;28;20174;-85
2021/07/03 01:08:22;;;;;;;9.98;9.13;;;19.00;99.90;;;;;;5089700;28;20585;-84
2021/07/03 01:10:48;;;;;;;9.80;8.85;;;19.00;99.90;;;;;;5091810;28;20173;-85
2021/07/03 01:13:14;;;;;;;10.00;9.00;;;19.00;99.90;;;;;;5089130;28;20195;-84
2021/07/03 01:15:39;;;;;;;12.27;9.27;;;19.10;99.90;;;;;;5093354;28;20165;-84
2021/07/03 01:18:05;;;;;;;10.68;9.63;;;19.00;99.90;;;;;;5074287;28;20177;-84
2021/07/03 01:20:31;;;;;;;10.52;9.57;;;19.00;99.90;;;;;;5093772;28;20194;-86
2021/07/03 01:22:57;;;;;;;10.32;8.90;;;19.00;99.90;;;;;;5085881;28;20222;-85
2021/07/03 01:25:23;;;;;;;15.35;10.18;;;19.00;99.90;;;;;;5077711;28;20246;-84
2021/07/03 01:28:03;;;;;;;10.90;9.15;;;18.90;99.90;;;;;;5097124;28;20169;-85
2021/07/03 01:30:30;;;;;;;9.52;8.73;;;18.90;99.90;;;;;;5093925;28;20177;-85
2021/07/03 01:32:56;;;;;;;14.07;9.23;;;19.00;99.90;;;;;;5096781;28;20173;-85
2021/07/03 01:35:29;;;;;;;9.88;8.95;;;18.90;99.90;;;;;;5093984;28;20686;-84
2021/07/03 01:37:56;;;;;;;11.40;8.77;;;19.00;99.90;;;;;;5094369;28;20177;-85
2021/07/03 01:40:22;;;;;;;9.52;8.63;;;18.90;99.90;;;;;;5078248;28;20290;-85
2021/07/03 01:42:48;;;;;;;9.65;8.73;;;18.90;99.90;;;;;;5094293;28;20717;-85
2021/07/03 01:45:14;;;;;;;11.10;8.40;;;18.80;99.90;;;;;;5094723;28;20178;-85
2021/07/03 01:47:45;;;;;;;10.07;8.40;;;18.90;99.90;;;;;;5094599;28;20178;-84
2021/07/03 01:50:12;;;;;;;12.05;9.25;;;19.00;99.90;;;;;;5093517;28;20687;-84
2021/07/03 01:52:38;;;;;;;10.27;8.98;;;19.10;99.90;;;;;;5094368;28;20154;-84
2021/07/03 01:55:08;;;;;;;9.85;8.95;;;19.20;99.90;;;;;;5093313;28;20683;-85
2021/07/03 01:57:35;;;;;;;15.20;9.13;;;19.20;99.90;;;;;;5094684;28;20182;-84
2021/07/03 02:00:03;;;;;;;11.90;9.10;;;19.10;99.90;;;;;;5094651;28;20188;-84
2021/07/03 02:02:28;;;;;;;11.48;7.95;;;19.00;99.90;;;;;;5094308;28;20525;-85
2021/07/03 02:04:54;;;;;;;9.98;8.18;;;19.00;99.90;;;;;;5060773;28;20180;-85
2021/07/03 02:07:20;;;;;;;9.75;8.80;;;18.90;99.90;;;;;;5092759;28;20525;-85
2021/07/03 02:09:45;;;;;;;14.68;8.93;;;18.90;99.90;;;;;;5094838;28;20486;-84
2021/07/03 02:12:11;;;;;;;10.60;8.93;;;18.90;99.90;;;;;;5090850;28;20627;-85
2021/07/03 02:14:37;;;;;;;8.90;8.10;;;18.90;99.90;;;;;;5073184;28;20280;-85
2021/07/03 02:17:02;;;;;;;10.85;8.63;;;18.90;99.90;;;;;;5075445;28;20163;-84
2021/07/03 02:19:28;;;;;;;8.88;7.95;;;18.80;99.90;;;;;;5089108;28;20194;-85
2021/07/03 02:21:54;;;;;;;11.00;9.07;;;18.90;99.90;;;;;;5083494;28;20519;-85
2021/07/03 02:24:19;;;;;;;10.35;8.98;;;18.90;99.90;;;;;;5082081;28;20174;-85
2021/07/03 02:26:45;;;;;;;13.68;8.60;;;18.90;99.90;;;;;;5074649;28;20182;-85
2021/07/03 02:29:11;;;;;;;10.57;9.50;;;18.90;99.90;;;;;;5077517;28;20706;-85
2021/07/03 02:31:37;;;;;;;10.05;8.63;;;18.90;99.90;;;;;;5093466;28;20174;-85
2021/07/03 02:34:03;;;;;;;9.90;8.80;;;18.80;99.90;;;;;;5074897;28;20174;-86
2021/07/03 02:36:29;;;;;;;10.15;9.05;;;18.80;99.90;;;;;;5092749;28;20223;-86
2021/07/03 02:38:55;;;;;;;9.52;8.52;;;18.90;99.90;;;;;;5094233;28;20162;-85
2021/07/03 02:41:20;;;;;;;10.20;8.98;;;18.90;99.90;;;;;;5092790;28;20650;-85
2021/07/03 02:43:46;;;;;;;15.38;9.73;;;18.80;99.90;;;;;;5093352;28;20181;-85
2021/07/03 02:46:12;;;;;;;14.25;9.80;;;18.70;99.90;;;;;;5077280;28;20192;-85
2021/07/03 02:48:38;;;;;;;10.27;9.15;;;18.70;99.90;;;;;;5076529;28;20185;-85
2021/07/03 02:51:04;;;;;;;10.68;9.57;;;18.70;99.90;;;;;;5076681;28;20178;-85
2021/07/03 02:53:29;;;;;;;11.23;9.10;;;18.60;99.90;;;;;;5076352;28;20265;-85
2021/07/03 02:55:55;;;;;;;10.98;9.32;;;18.50;99.90;;;;;;5076558;28;20261;-85
2021/07/03 02:58:21;;;;;;;11.43;9.63;;;18.50;99.90;;;;;;5076400;28;20279;-85
2021/07/03 03:00:46;;;;;;;13.48;8.90;;;18.50;99.90;;;;;;5076764;28;20465;-85
2021/07/03 03:03:12;;;;;;;10.57;9.38;;;18.40;99.90;;;;;;5093596;28;20190;-85
2021/07/03 03:05:38;;;;;;;9.90;9.00;;;18.40;99.90;;;;;;5093300;28;20272;-85
2021/07/03 03:08:04;;;;;;;10.40;9.50;;;18.30;99.90;;;;;;5092387;28;20251;-85
2021/07/03 03:10:29;;;;;;;9.48;8.68;;;18.20;99.90;;;;;;5092007;28;20177;-85
2021/07/03 03:12:55;;;;;;;11.20;9.23;;;18.10;99.90;;;;;;5117813;28;20170;-86
2021/07/03 03:15:21;;;;;;;11.80;9.40;;;18.20;99.90;;;;;;5118895;28;20176;-84
2021/07/03 03:17:46;;;;;;;9.20;8.50;;;18.30;99.90;;;;;;5117941;28;20158;-86
2021/07/03 03:20:13;;;;;;;9.55;8.57;;;18.40;99.90;;;;;;5096582;28;20518;-85
2021/07/03 03:22:42;;;;;;;11.23;8.88;;;18.40;99.90;;;;;;5087641;28;20181;-84
2021/07/03 03:25:09;;;;;;;10.65;9.52;;;18.50;99.90;;;;;;5092228;28;20213;-85
2021/07/03 03:27:34;;;;;;;9.23;8.48;;;18.50;99.90;;;;;;5094620;28;20158;-85
2021/07/03 03:30:00;;;;;;;10.52;9.63;;;18.60;99.90;;;;;;5100968;28;20185;-85
2021/07/03 03:32:26;;;;;;;9.70;8.88;;;18.60;99.90;;;;;;5112280;28;20213;-84
2021/07/03 03:34:51;;;;;;;10.77;9.55;;;18.70;99.90;;;;;;5116849;28;20201;-85
2021/07/03 03:37:17;;;;;;;11.27;10.18;;;18.80;99.90;;;;;;5096871;28;20253;-85
2021/07/03 03:39:43;;;;;;;11.10;9.90;;;18.90;99.90;;;;;;5090996;28;20231;-85
2021/07/03 03:42:09;;;;;;;10.23;9.40;;;19.00;99.90;;;;;;5091815;28;20614;-85
2021/07/03 03:44:34;;;;;;;10.13;8.98;;;19.20;99.90;;;;;;5075318;28;20170;-85
2021/07/03 03:47:00;;;;;;;10.43;8.70;;;19.20;99.90;;;;;;5075574;28;20443;-84
2021/07/03 03:49:26;;;;;;;10.20;9.27;;;19.20;99.90;;;;;;5094058;28;20256;-85
2021/07/03 03:51:52;;;;;;;8.68;8.05;;;19.30;99.90;;;;;;5075631;28;20272;-84
2021/07/03 03:54:18;;;;;;;9.10;8.23;;;19.40;99.90;;;;;;5091683;28;20603;-85
2021/07/03 03:56:44;;;;;;;9.30;8.32;;;19.50;99.90;;;;;;5083854;28;20293;-85
2021/07/03 03:59:13;;;;;;;8.25;7.55;;;19.60;99.90;;;;;;5072687;28;20166;-85
2021/07/03 04:01:39;;;;;;;8.15;7.43;;;19.70;99.90;;;;;;5083028;28;20504;-84
2021/07/03 04:04:05;;;;;;;10.02;9.02;;;19.70;99.90;;;;;;5092229;28;20197;-85
2021/07/03 04:06:31;;;;;;;10.20;8.82;;;19.80;99.90;;;;;;5093143;28;20173;-85
2021/07/03 04:08:57;;;;;;;9.23;8.43;;;19.80;99.90;;;;;;5092445;28;20170;-85
2021/07/03 04:11:23;;;;;;;9.18;8.15;;;19.80;99.90;;;;;;5092390;28;20211;-85
2021/07/03 04:13:49;;;;;;;11.13;8.23;;;19.80;99.90;;;;;;5091541;28;20566;-85
2021/07/03 04:16:15;;;;;;;11.20;8.48;;;19.80;99.90;;;;;;5075537;28;20171;-85
2021/07/03 04:18:41;;;;;;;9.57;8.77;;;19.80;99.90;;;;;;5091219;28;20261;-85
2021/07/03 04:21:06;;;;;;;8.95;8.05;;;19.80;99.90;;;;;;5091670;28;20292;-86
2021/07/03 04:23:32;;;;;;;9.02;8.23;;;19.80;99.90;;;;;;5075015;28;20193;-85
2021/07/03 04:25:58;;;;;;;11.85;8.82;;;19.80;99.90;;;;;;5093295;28;20174;-85
2021/07/03 04:28:23;;;;;;;11.05;8.77;;;19.80;99.90;;;;;;5093131;28;20170;-85
2021/07/03 04:30:49;;;;;;;9.00;7.38;;;19.80;99.90;;;;;;5075687;28;20177;-85
2021/07/03 04:33:15;;;;;;;9.57;8.77;;;19.80;99.90;;;;;;5091161;28;20186;-84
2021/07/03 04:35:40;;;;;;;9.32;8.27;;;19.70;99.90;;;;;;5087193;28;20176;-85
2021/07/03 04:38:06;;;;;;;13.38;8.25;;;19.70;99.90;;;;;;5074669;28;20204;-85
2021/07/03 04:40:32;;;;;;;10.63;8.00;;;19.70;99.90;;;;;;5072542;28;20218;-85
2021/07/03 04:42:58;;;;;;;10.30;8.00;;;19.70;99.90;;;;;;5092414;28;20162;-85
2021/07/03 04:45:24;;;;;;;8.73;7.82;;;19.90;99.90;;;;;;5091538;28;20563;-85
2021/07/03 04:47:51;;;;;;;13.10;8.70;;;19.90;99.90;;;;;;5075379;28;20287;-85
2021/07/03 04:50:17;;;;;;;9.55;8.60;;;20.10;99.90;;;;;;5075311;28;20267;-85
2021/07/03 04:52:42;;;;;;;10.18;8.32;;;20.10;99.90;;;;;;5075560;28;20267;-85
2021/07/03 04:55:09;;;;;;;8.75;7.97;;;20.10;99.90;;;;;;5078198;28;20186;-85
2021/07/03 04:57:35;;;;;;;11.60;8.50;;;20.10;99.90;;;;;;5096955;28;20165;-85
2021/07/03 05:00:01;;;;;;;9.52;8.73;;;20.20;99.90;;;;;;5078695;28;20512;-85
2021/07/03 05:02:27;;;;;;;9.18;8.20;;;20.20;99.90;;;;;;5095634;28;20365;-85
2021/07/03 05:04:53;;;;;;;10.20;9.20;;;20.20;99.90;;;;;;5096599;28;20177;-85
2021/07/03 05:07:18;;;;;;;13.60;9.23;;;20.20;99.90;;;;;;5078328;28;20194;-85
2021/07/03 05:09:44;;;;;;;10.88;8.98;;;20.20;99.90;;;;;;5095536;28;20169;-86
2021/07/03 05:12:10;;;;;;;9.20;8.40;;;20.20;99.90;;;;;;5094978;28;20173;-85
2021/07/03 05:14:35;;;;;;;9.52;8.60;;;19.90;99.90;;;;;;5095087;28;20264;-85
2021/07/03 05:17:01;;;;;;;12.13;9.65;;;19.70;99.90;;;;;;5097059;28;20162;-85
2021/07/03 05:19:27;;;;;;;14.55;8.13;;;19.60;99.90;;;;;;5091292;28;20191;-85
2021/07/03 05:21:53;;;;;;;10.70;8.90;;;19.60;99.90;;;;;;5076255;28;20166;-85
2021/07/03 05:24:19;;;;;;;12.48;9.05;;;19.70;99.90;;;;;;5094214;28;20324;-85
2021/07/03 05:26:44;;;;;;;9.65;8.52;;;19.80;99.90;;;;;;5078748;28;20253;-84
2021/07/03 05:29:10;;;;;;;13.73;9.27;;;20.00;99.90;;;;;;5095999;28;20260;-85
2021/07/03 05:31:36;;;;;;;11.38;8.85;;;20.10;99.90;;;;;;5095397;28;20170;-85
2021/07/03 05:34:02;;;;;;;11.25;8.63;;;20.10;99.90;;;;;;5076585;28;20283;-85
2021/07/03 05:36:28;;;;;;;14.05;8.98;;;20.10;99.90;;;;;;5078247;28;20166;-85
2021/07/03 05:38:54;;;;;;;9.30;8.35;;;20.10;99.90;;;;;;5095429;28;20177;-85
2021/07/03 05:41:20;;;;;;;16.75;9.32;;;20.00;99.90;;;;;;5078159;28;20218;-85
2021/07/03 05:43:46;;;;;;;8.02;7.32;;;20.10;99.90;;;;;;5097065;28;20173;-84
2021/07/03 05:46:13;;;;;;;9.68;7.70;;;20.30;99.90;;;;;;5119428;28;20189;-85
2021/07/03 05:48:40;;;;;;;8.38;7.50;;;20.50;99.90;;;;;;5119994;28;20150;-85
2021/07/03 05:51:06;;;;;;;8.93;8.13;;;20.60;99.90;;;;;;5088375;28;20178;-85
2021/07/03 05:53:32;;;;;;;11.73;8.85;;;20.70;99.90;;;;;;5094105;28;20190;-85
2021/07/03 05:55:58;;;;;;;8.95;7.25;;;20.80;99.90;;;;;;5094397;28;20208;-85
2021/07/03 05:58:23;;;;;;;12.93;8.05;;;20.90;99.90;;;;;;5087910;28;20175;-85
2021/07/03 06:00:49;;;;;;;11.68;8.40;;;21.10;99.90;;;;;;5101351;28;20189;-84
2021/07/03 06:03:15;;;;;;;11.25;8.07;;;21.20;99.90;;;;;;5120044;28;20161;-85
2021/07/03 06:05:40;;;;;;;15.15;8.63;;;21.30;99.90;;;;;;5114607;28;20190;-84
2021/07/03 06:08:06;;;;;;;9.48;8.07;;;21.50;99.90;;;;;;5086773;28;20642;-85
2021/07/03 06:10:32;;;;;;;7.65;6.95;;;21.60;99.90;;;;;;5094537;28;20208;-85
2021/07/03 06:12:58;;;;;;;7.53;6.82;;;21.70;99.90;;;;;;5095445;28;20178;-85
2021/07/03 06:15:23;;;;;;;8.48;7.63;;;21.70;99.90;;;;;;5093319;28;20174;-85
2021/07/03 06:17:49;;;;;;;11.13;7.68;;;21.70;99.90;;;;;;5095083;28;20198;-85
2021/07/03 06:20:15;;;;;;;8.43;7.57;;;21.50;99.90;;;;;;5094495;28;20197;-84
2021/07/03 06:22:41;;;;;;;8.98;7.63;;;21.40;99.90;;;;;;5077884;28;20169;-85
2021/07/03 06:25:09;;;;;;;12.00;7.35;;;21.40;99.90;;;;;;5092918;28;20170;-85
2021/07/03 06:27:37;;;;;;;8.05;7.18;;;21.40;99.90;;;;;;5094371;28;20191;-85
2021/07/03 06:30:04;;;;;;;7.97;6.55;;;21.20;99.90;;;;;;5092895;28;20177;-85
2021/07/03 06:32:30;;;;;;;9.23;7.53;;;21.10;99.90;;;;;;5094381;28;20243;-85
2021/07/03 06:34:56;;;;;;;7.82;7.15;;;21.10;99.90;;;;;;5093977;28;20178;-85
2021/07/03 06:37:21;;;;;;;8.05;7.05;;;21.00;99.90;;;;;;5093600;28;20523;-85
2021/07/03 06:39:47;;;;;;;8.52;7.68;;;20.80;99.90;;;;;;5092779;28;20197;-85
2021/07/03 06:42:13;;;;;;;10.35;7.80;;;20.80;99.90;;;;;;5095105;28;20190;-85
2021/07/03 06:44:39;;;;;;;6.93;6.43;;;21.00;99.90;;;;;;5093319;28;20169;-85
2021/07/03 06:47:05;;;;;;;12.10;7.10;;;21.20;99.90;;;;;;5094163;28;20181;-85
2021/07/03 06:49:31;;;;;;;8.57;6.97;;;21.50;99.90;;;;;;5093228;28;20174;-85
2021/07/03 06:51:56;;;;;;;6.90;6.15;;;21.80;99.90;;;;;;5093405;28;20174;-85
2021/07/03 06:54:22;;;;;;;8.77;7.13;;;22.00;99.90;;;;;;5072911;28;20570;-85
2021/07/03 06:56:57;;;;;;;16.45;7.03;;;22.10;99.90;;;;;;5073849;28;20171;-85
2021/07/03 06:59:23;;;;;;;7.30;6.32;;;22.00;99.90;;;;;;5086850;28;20222;-85
2021/07/03 07:01:49;;;;;;;9.85;6.53;;;22.00;99.90;;;;;;5108807;28;20517;-85
2021/07/03 07:04:14;;;;;;;7.50;6.80;;;22.00;99.90;;;;;;5092635;28;20178;-84
2021/07/03 07:06:40;;;;;;;9.70;6.65;;;22.00;99.90;;;;;;5076633;28;20667;-84
2021/07/03 07:09:06;;;;;;;6.47;5.97;;;22.10;99.90;;;;;;5091851;28;20264;-84
2021/07/03 07:11:31;;;;;;;6.53;5.95;;;22.00;99.90;;;;;;5094356;28;20618;-85
2021/07/03 07:13:57;;;;;;;10.05;6.00;;;22.00;99.90;;;;;;5094512;28;20166;-85
2021/07/03 07:16:38;;;;;;;6.07;5.47;;;22.10;99.90;;;;;;5072034;28;20191;-85
2021/07/03 07:19:04;;;;;;;11.48;5.90;;;22.30;99.90;;;;;;5085341;28;20178;-84
2021/07/03 07:21:30;;;;;;;6.18;5.55;;;22.50;99.90;;;;;;5092548;28;20174;-85
2021/07/03 07:23:56;;;;;;;6.28;5.68;;;22.50;99.90;;;;;;5092951;28;20257;-82
2021/07/03 07:26:22;;;;;;;6.10;5.60;;;22.70;99.90;;;;;;5073233;28;20209;-85
2021/07/03 07:28:49;;;;;;;5.88;5.28;;;22.90;99.90;;;;;;5075605;28;20171;-84
2021/07/03 07:31:16;;;;;;;5.47;4.97;;;23.00;99.90;;;;;;5094543;28;20211;-82
2021/07/03 07:33:42;;;;;;;5.90;5.40;;;23.20;99.90;;;;;;5092629;28;20178;-84
2021/07/03 07:36:08;;;;;;;7.70;5.22;;;23.40;99.90;;;;;;5092511;28;20531;-82
2021/07/03 07:38:34;;;;;;;5.90;5.40;;;23.60;99.90;;;;;;5091577;28;20185;-82
2021/07/03 07:40:59;;;;;;;6.43;4.40;;;23.70;99.90;;;;;;5092980;28;20201;-82
2021/07/03 07:43:25;;;;;;;6.88;5.20;;;23.90;99.90;;;;;;5093652;28;20257;-82
2021/07/03 07:45:53;;;;;;;6.28;5.55;;;24.00;99.90;;;;;;5091623;28;20545;-82
2021/07/03 07:48:18;;;;;;;4.90;4.45;;;24.00;99.90;;;;;;5073000;28;20607;-85
2021/07/03 07:50:44;;;;;;;5.93;5.03;;;23.80;99.90;;;;;;5089607;28;20197;-85
2021/07/03 07:53:10;;;;;;;8.38;4.63;;;23.90;99.90;;;;;;5076197;28;20166;-85
2021/07/03 07:55:35;;;;;;;8.32;4.72;;;24.10;99.90;;;;;;5074900;28;20174;-82
2021/07/03 07:58:01;;;;;;;10.05;5.32;;;24.30;99.90;;;;;;5092962;28;20642;-82
2021/07/03 08:00:27;;;;;;;6.47;4.70;;;24.60;99.90;;;;;;5072629;28;20185;-83
2021/07/03 08:02:53;;;;;;;5.85;5.15;;;24.70;99.90;;;;;;5089368;28;20602;-83
2021/07/03 08:05:19;;;;;;;7.32;5.30;;;25.00;99.90;;;;;;5082375;28;20170;-83
2021/07/03 08:07:45;;;;;;;8.05;4.93;;;25.20;99.90;;;;;;5088716;28;20170;-84
2021/07/03 08:10:12;;;;;;;6.57;4.75;;;25.20;99.90;;;;;;5082313;28;20178;-84
2021/07/03 08:12:38;;;;;;;6.82;4.60;;;25.20;99.90;;;;;;5076422;28;20170;-84
2021/07/03 08:15:05;;;;;;;5.13;4.72;;;25.50;99.90;;;;;;5110857;28;20170;-83
2021/07/03 08:17:31;;;;;;;6.68;4.65;;;25.40;99.90;;;;;;5117958;28;20169;-84
2021/07/03 08:19:57;;;;;;;12.07;4.25;;;26.10;99.90;;;;;;5116746;28;20226;-83
2021/07/03 08:22:23;;;;;;;6.13;4.38;;;26.70;99.90;;;;;;5102807;28;20261;-84
2021/07/03 08:24:49;;;;;;;5.43;4.93;;;26.90;99.90;;;;;;5074709;28;20256;-83
2021/07/03 08:27:14;;;;;;;5.97;4.88;;;26.80;99.90;;;;;;5075662;28;20187;-84
2021/07/03 08:29:40;;;;;;;11.27;4.50;;;26.20;99.90;;;;;;5095545;28;20225;-84
2021/07/03 08:32:06;;;;;;;7.95;5.03;;;25.80;99.90;;;;;;5103806;28;20170;-84
2021/07/03 08:34:32;;;;;;;7.50;4.40;;;25.60;99.90;;;;;;5102067;28;20174;-83
2021/07/03 08:36:58;;;;;;;8.70;5.18;;;26.00;99.90;;;;;;5120861;28;20171;-83
2021/07/03 08:39:23;;;;;;;5.95;4.72;;;26.30;99.90;;;;;;5086107;28;20174;-84
2021/07/03 08:41:49;;;;;;;5.82;4.75;;;26.50;99.90;;;;;;5089843;28;20190;-85
2021/07/03 08:44:16;;;;;;;14.35;4.97;;;26.40;99.90;;;;;;5097819;28;20174;-85
2021/07/03 08:46:46;;;;;;;5.55;4.78;;;26.00;99.90;;;;;;5075750;28;20182;-84
2021/07/03 08:49:12;;;;;;;5.18;4.70;;;25.80;99.90;;;;;;5095907;28;20166;-84
2021/07/03 08:51:42;;;;;;;9.57;4.63;;;25.60;99.90;;;;;;5097108;28;21408;-84
2021/07/03 08:54:08;;;;;;;7.80;4.97;;;25.20;99.90;;;;;;5096286;28;20177;-84
2021/07/03 08:56:34;;;;;;;5.88;4.80;;;25.00;99.90;;;;;;5096387;28;20595;-84
2021/07/03 08:59:00;;;;;;;5.20;4.75;;;24.90;99.90;;;;;;5097479;28;20541;-84
2021/07/03 09:01:25;;;;;;;6.72;4.85;;;24.60;99.90;;;;;;5095801;28;20186;-84
2021/07/03 09:03:53;;;;;;;4.53;4.22;;;24.40;99.90;;;;;;5095854;28;20178;-84
2021/07/03 09:06:30;;;;;;;8.35;4.60;;;24.40;99.90;;;;;;5096635;28;20176;-84
2021/07/03 09:08:56;;;;;;;5.45;4.97;;;24.60;99.90;;;;;;5095857;28;20227;-84
2021/07/03 09:11:22;;;;;;;5.25;4.85;;;25.00;99.90;;;;;;5095424;28;20182;-88
2021/07/03 09:14:00;;;;;;;6.68;4.80;;;25.10;99.90;;;;;;5096457;28;20187;-88
2021/07/03 09:16:35;;;;;;;8.68;4.13;;;25.60;99.90;;;;;;5096031;28;20206;-88
2021/07/03 09:19:02;;;;;;;4.50;4.10;;;26.50;99.90;;;;;;5095773;28;20169;-88
2021/07/03 09:21:31;;;;;;;4.45;4.15;;;27.00;99.90;;;;;;5096462;28;20193;-90
2021/07/03 09:23:59;;;;;;;8.57;4.28;;;27.30;99.90;;;;;;5096889;28;20185;-90
2021/07/03 09:26:25;;;;;;;5.60;4.20;;;27.30;99.90;;;;;;5096553;28;20174;-90
2021/07/03 09:28:51;;;;;;;4.57;4.15;;;27.10;99.90;;;;;;5096341;28;20308;-88
2021/07/03 09:31:21;;;;;;;8.70;4.60;;;26.90;99.90;;;;;;5096243;28;20625;-89
2021/07/03 09:33:55;;;;;;;10.32;4.32;;;26.90;99.90;;;;;;5083118;28;20556;-89
2021/07/03 09:36:30;;;;;;;10.75;4.45;;;26.80;99.90;;;;;;5096234;28;20180;-90
2021/07/03 09:38:58;;;;;;;4.57;4.18;;;26.90;99.90;;;;;;5096151;28;20174;-88
2021/07/03 09:41:25;;;;;;;4.57;4.00;;;26.90;99.90;;;;;;5094509;28;20201;-89
2021/07/03 09:43:51;;;;;;;4.63;4.22;;;27.40;99.90;;;;;;5096202;28;20257;-89
2021/07/03 09:46:25;;;;;;;7.00;4.38;;;27.30;99.90;;;;;;5095794;28;20634;-89
2021/07/03 09:48:54;;;;;;;8.93;4.93;;;27.10;99.90;;;;;;5095518;28;20182;-89
2021/07/03 09:51:47;;;;;;;4.78;4.40;;;27.40;99.90;;;;;;5095560;28;20181;-88
2021/07/03 09:54:14;;;;;;;6.72;4.65;;;28.70;99.90;;;;;;5093548;28;20213;-89
2021/07/03 09:56:41;;;;;;;6.25;4.85;;;28.90;99.90;;;;;;5095921;28;20645;-90
2021/07/03 09:59:08;;;;;;;8.30;4.43;;;28.20;99.90;;;;;;5095926;28;20220;-90
2021/07/03 10:01:34;;;;;;;5.38;4.93;;;27.60;99.90;;;;;;5095793;28;20266;-89
2021/07/03 10:04:03;;;;;;;9.13;5.45;;;27.40;99.90;;;;;;5095795;28;20184;-89
2021/07/03 10:06:57;;;;;;;7.95;4.88;;;26.90;99.90;;;;;;5105984;28;20626;-90
2021/07/03 10:09:41;;;;;;;5.03;4.30;;;26.60;99.90;;;;;;5067527;28;20178;-90
2021/07/03 10:12:11;;;;;;;5.70;4.80;;;26.40;99.90;;;;;;5093934;28;20638;-91
2021/07/03 10:14:42;;;;;;;7.90;4.72;;;26.30;99.90;;;;;;5083294;28;20158;-89
2021/07/03 10:17:24;;;;;;;5.28;4.55;;;26.40;99.90;;;;;;5095375;28;20173;-90
2021/07/03 10:19:50;;;;;;;6.82;4.80;;;26.60;99.90;;;;;;5094491;28;20194;-89
2021/07/03 10:22:24;;;;;;;5.50;5.00;;;26.50;99.90;;;;;;5095204;28;20257;-88
2021/07/03 10:24:58;;;;;;;5.35;4.80;;;26.40;99.90;;;;;;5095377;28;20618;-89
2021/07/03 10:27:26;;;;;;;6.55;5.10;;;26.90;99.90;;;;;;5094690;28;20158;-88
2021/07/03 10:29:54;;;;;;;6.25;4.85;;;27.20;99.90;;;;;;5095306;28;20177;-88
2021/07/03 10:32:24;;;;;;;9.23;4.75;;;27.30;99.90;;;;;;5094592;28;20205;-89
2021/07/03 10:34:50;;;;;;;6.28;4.75;;;27.70;99.90;;;;;;5094258;28;20158;-88
2021/07/03 10:37:28;;;;;;;4.80;4.30;;;28.20;99.90;;;;;;5094786;28;20162;-87
2021/07/03 10:39:53;;;;;;;6.40;4.25;;;28.10;99.90;;;;;;5094088;28;20190;-88
2021/07/03 10:42:32;;;;;;;6.57;4.38;;;28.40;99.90;;;;;;5094784;28;20193;-89
2021/07/03 10:45:12;;;;;;;4.47;4.10;;;28.20;99.90;;;;;;5094790;28;20606;-88
2021/07/03 10:47:38;;;;;;;5.88;4.80;;;27.90;99.90;;;;;;5113272;28;20186;-90
2021/07/03 10:50:25;;;;;;;6.93;5.10;;;27.70;99.90;;;;;;5117290;28;20170;-88
2021/07/03 10:52:52;;;;;;;9.43;4.80;;;27.40;99.90;;;;;;5090917;28;20700;-89
2021/07/03 10:55:33;;;;;;;12.75;5.10;;;27.40;99.90;;;;;;5099452;28;20158;-87
2021/07/03 10:58:00;;;;;;;5.38;4.88;;;27.70;99.90;;;;;;5097112;28;20184;-85
2021/07/03 11:00:26;;;;;;;6.72;5.40;;;27.90;99.90;;;;;;5098554;28;20650;-84
2021/07/03 11:02:53;;;;;;;9.18;5.60;;;28.30;99.90;;;;;;5103209;28;20209;-85
2021/07/03 11:05:19;;;;;;;6.57;4.93;;;28.80;99.90;;;;;;5115920;28;20174;-86
2021/07/03 11:07:46;;;;;;;5.25;4.82;;;29.10;99.90;;;;;;5101153;28;20172;-85
2021/07/03 11:10:17;;;;;;;5.20;4.80;;;29.40;99.90;;;;;;5135692;28;20193;-85
2021/07/03 11:12:53;;;;;;;8.88;5.18;;;29.70;99.90;;;;;;5112175;28;20174;-85
2021/07/03 11:15:21;;;;;;;5.00;4.60;;;30.40;99.90;;;;;;5099531;28;20210;-84
2021/07/03 11:17:47;;;;;;;6.22;4.32;;;30.60;99.90;;;;;;5096284;28;20173;-83
2021/07/03 11:20:32;;;;;;;4.80;4.40;;;30.50;99.90;;;;;;5079178;28;20261;-82
2021/07/03 11:22:58;;;;;;;5.30;4.80;;;32.10;99.90;;;;;;5095691;28;20170;-83
2021/07/03 11:25:28;;;;;;;9.20;5.30;;;33.30;99.90;;;;;;5097246;28;20166;-83
2021/07/03 11:28:04;;;;;;;5.40;4.90;;;33.70;99.90;;;;;;5095596;28;20629;-83
2021/07/03 11:30:30;;;;;;;10.45;5.47;;;33.90;99.90;;;;;;5096848;28;20164;-82
2021/07/03 11:32:57;;;;;;;5.43;4.68;;;35.10;99.90;;;;;;5095125;28;20264;-83
2021/07/03 11:35:25;;;;;;;4.70;4.28;;;36.60;99.90;;;;;;5095071;28;20165;-83
2021/07/03 11:37:51;;;;;;;6.05;4.57;;;36.50;99.90;;;;;;5094553;28;20176;-83
2021/07/03 11:40:29;;;;;;;4.30;4.00;;;36.00;99.90;;;;;;5096243;28;20189;-83
2021/07/03 11:43:01;;;;;;;8.90;3.90;;;35.90;99.90;;;;;;5095090;28;20629;-83
2021/07/03 11:45:34;;;;;;;6.53;4.78;;;35.80;99.90;;;;;;5096809;28;20158;-84
2021/07/03 11:48:14;;;;;;;7.78;4.00;;;35.00;99.90;;;;;;5094248;28;20266;-83
2021/07/03 11:50:46;;;;;;;6.53;4.43;;;33.80;99.90;;;;;;5094483;28;20169;-83
2021/07/03 11:53:13;;;;;;;4.43;4.13;;;33.30;99.90;;;;;;5095533;28;20181;-83
2021/07/03 11:55:42;;;;;;;4.40;4.00;;;33.10;99.90;;;;;;5094067;28;20252;-84
2021/07/03 11:58:13;;;;;;;4.65;4.13;;;33.20;99.90;;;;;;5094371;28;20234;-83
2021/07/03 12:00:44;;;;;;;4.32;4.03;;;34.40;99.90;;;;;;5094765;28;20199;-83
2021/07/03 12:03:11;;;;;;;3.97;3.58;;;34.50;99.90;;;;;;5093629;28;20572;-83
2021/07/03 12:05:39;;;;;;;7.60;3.38;;;34.00;99.90;;;;;;5077143;28;20487;-83
2021/07/03 12:08:10;;;;;;;4.13;3.80;;;33.20;99.90;;;;;;5093454;28;20197;-82
2021/07/03 12:10:42;;;;;;;5.50;4.00;;;32.30;99.90;;;;;;5094396;28;20161;-82
2021/07/03 12:13:21;;;;;;;4.35;4.00;;;31.40;99.90;;;;;;5092750;28;20162;-83
2021/07/03 12:16:03;;;;;;;4.57;4.18;;;30.70;99.90;;;;;;5093588;28;20157;-83
2021/07/03 12:18:34;;;;;;;6.18;4.82;;;30.20;99.90;;;;;;5093752;28;20166;-83
2021/07/03 12:21:14;;;;;;;4.85;4.43;;;29.50;99.90;;;;;;5092571;28;20177;-83
2021/07/03 12:23:55;;;;;;;5.10;4.70;;;28.90;99.90;;;;;;5092775;28;20175;-83
2021/07/03 12:26:28;;;;;;;6.05;4.47;;;28.30;99.90;;;;;;5092379;28;20172;-83
2021/07/03 12:29:05;;;;;;;5.55;4.78;;;28.00;99.90;;;;;;5073654;28;20184;-84
2021/07/03 12:31:37;;;;;;;6.53;5.10;;;27.80;99.90;;;;;;5092263;28;20166;-83
2021/07/03 12:34:10;;;;;;;4.88;4.43;;;27.60;99.90;;;;;;5092660;28;20218;-83
2021/07/03 12:36:45;;;;;;;6.80;4.70;;;27.50;99.90;;;;;;5093296;28;20166;-83
2021/07/03 12:39:19;;;;;;;8.27;4.43;;;27.50;99.90;;;;;;5092725;28;20260;-83
2021/07/03 12:41:54;;;;;;;10.32;5.47;;;27.60;99.90;;;;;;5088574;28;20231;-83
2021/07/03 12:44:34;;;;;;;7.63;4.30;;;27.50;99.90;;;;;;5093552;28;20576;-83